Time;durP1;ratioP1;P1;durP2;ratioP2;P2;SDS_P1;SDS_P2;PMS_P1;PMS_P2;Temp;Humidity;BMP_temperature;BMP_pressure;BME280_temperature;BME280_humidity;BME280_pressure;Samples;Min_cycle;Max_cycle;Signal;HPM_P1;HPM_P2
2021/04/08 00:01:06;;;;;;;8.73;7.83;;;;;;;2.88;72.08;94829.38;5075786;28;20473;-79
2021/04/08 00:03:33;;;;;;;8.50;7.60;;;;;;;2.93;72.07;94832.56;5076902;28;20448;-80
2021/04/08 00:05:59;;;;;;;8.90;7.77;;;;;;;2.89;72.09;94831.06;5076866;28;20429;-80
2021/04/08 00:08:26;;;;;;;8.40;7.50;;;;;;;2.85;72.55;94832.16;5058145;28;20447;-80
2021/04/08 00:10:52;;;;;;;9.40;8.40;;;;;;;2.82;72.62;94827.13;5076530;28;20437;-80
2021/04/08 00:20:08;;;;;;;9.03;7.57;;;;;;;2.83;72.76;94827.06;5076690;28;20214;-80
2021/04/08 00:22:34;;;;;;;10.20;8.53;;;;;;;2.77;73.01;94812.69;5077028;28;20785;-80
2021/04/08 00:25:01;;;;;;;12.57;9.10;;;;;;;2.78;72.54;94800.56;5041475;28;20440;-80
2021/04/08 00:27:27;;;;;;;9.90;8.00;;;;;;;2.92;75.55;94815.34;5041566;28;20206;-80
2021/04/08 00:29:54;;;;;;;13.48;8.93;;;;;;;3.02;73.36;94819.09;5076416;28;20198;-80
2021/04/08 00:32:20;;;;;;;9.13;8.20;;;;;;;3.03;74.14;94820.75;5076292;28;20205;-80
2021/04/08 00:34:46;;;;;;;11.95;7.90;;;;;;;2.78;72.17;94824.72;5076324;28;20444;-80
2021/04/08 00:37:14;;;;;;;13.10;9.30;;;;;;;2.75;73.31;94831.84;5076304;28;20557;-80
2021/04/08 00:39:40;;;;;;;11.35;8.50;;;;;;;2.75;73.30;94824.06;5041125;28;20482;-80
2021/04/08 00:42:07;;;;;;;9.70;8.17;;;;;;;2.69;73.13;94824.41;5075896;28;20229;-80
2021/04/08 00:44:33;;;;;;;11.70;9.00;;;;;;;2.71;72.98;94830.34;5076500;28;20448;-80
2021/04/08 00:47:00;;;;;;;10.98;8.32;;;;;;;2.56;73.20;94833.75;5041099;28;20444;-80
2021/04/08 00:49:26;;;;;;;11.77;8.17;;;;;;;2.60;72.70;94820.56;5075812;28;20191;-80
2021/04/08 00:55:15;;;;;;;13.15;8.65;;;;;;;2.59;73.48;94820.63;5075760;28;20174;-80
2021/04/08 00:57:42;;;;;;;9.43;7.23;;;;;;;2.61;74.44;94830.03;5040540;28;20548;-80
2021/04/08 01:00:29;;;;;;;10.45;7.57;;;;;;;2.59;75.46;94823.22;5075573;28;20460;-80
2021/04/08 01:02:56;;;;;;;8.73;7.80;;;;;;;2.47;74.41;94820.41;5053477;28;20225;-80
2021/04/08 01:05:22;;;;;;;12.27;8.70;;;;;;;2.49;74.28;94825.50;5053265;28;20441;-81
2021/04/08 01:07:51;;;;;;;9.83;8.80;;;;;;;2.59;73.84;94818.03;5053644;28;20655;-81
2021/04/08 01:10:20;;;;;;;10.77;8.50;;;;;;;2.63;73.45;94819.56;5053479;28;20978;-80
2021/04/08 01:12:46;;;;;;;13.30;8.38;;;;;;;2.56;73.33;94819.03;5053439;28;20210;-81
2021/04/08 01:15:13;;;;;;;13.00;8.80;;;;;;;2.55;75.20;94821.72;5053331;28;20202;-79
2021/04/08 01:31:19;;;;;;;15.25;8.63;;;;;;;2.43;73.88;94816.31;5053073;28;20177;-80
2021/04/08 01:33:50;;;;;;;11.65;8.95;;;;;;;2.38;73.88;94814.88;5062179;28;20206;-80
2021/04/08 01:36:20;;;;;;;14.50;9.40;;;;;;;2.40;74.53;94818.22;5075095;28;20199;-79
2021/04/08 01:38:49;;;;;;;11.23;8.85;;;;;;;2.38;74.33;94814.88;5074751;28;20867;-80
2021/04/08 01:41:19;;;;;;;11.73;8.43;;;;;;;2.34;74.20;94814.22;5040412;28;20234;-80
2021/04/08 01:43:47;;;;;;;10.27;8.32;;;;;;;2.27;74.24;94823.22;5039876;28;20430;-79
2021/04/08 01:46:16;;;;;;;9.27;7.38;;;;;;;2.15;74.76;94816.13;5075497;28;20194;-80
2021/04/08 01:48:46;;;;;;;12.60;8.50;;;;;;;2.11;74.82;94817.19;5075205;28;20198;-80
2021/04/08 01:51:14;;;;;;;9.60;7.70;;;;;;;2.09;75.19;94825.03;5075491;28;20218;-79
2021/04/08 01:53:47;;;;;;;15.70;9.52;;;;;;;2.07;75.05;94826.03;5074871;28;20213;-79
2021/04/08 01:56:16;;;;;;;10.80;8.18;;;;;;;2.13;75.21;94836.91;5074442;28;20190;-80
2021/04/08 01:58:43;;;;;;;12.98;8.57;;;;;;;2.16;75.34;94828.13;5075422;28;20238;-80
2021/04/08 02:01:10;;;;;;;13.45;8.18;;;;;;;2.18;75.00;94827.13;5074370;28;20565;-79
2021/04/08 02:03:37;;;;;;;10.15;8.25;;;;;;;2.23;74.99;94839.84;5075053;28;20201;-80
2021/04/08 02:06:08;;;;;;;14.38;8.30;;;;;;;2.27;75.14;94850.84;5074505;28;20198;-79
2021/04/08 02:08:36;;;;;;;10.85;7.47;;;;;;;2.27;75.16;94850.84;5074131;28;20190;-80
2021/04/08 02:11:04;;;;;;;15.05;9.65;;;;;;;2.22;74.95;94851.09;5074550;28;20247;-80
2021/04/08 02:13:30;;;;;;;27.10;13.60;;;;;;;2.24;74.68;94851.84;5074477;28;20182;-79
2021/04/08 02:15:59;;;;;;;12.95;9.10;;;;;;;2.21;74.80;94844.25;5039438;28;20206;-79
2021/04/08 02:18:27;;;;;;;14.05;9.23;;;;;;;2.24;74.98;94851.84;5074233;28;20210;-79
2021/04/08 02:20:54;;;;;;;13.30;8.37;;;;;;;2.28;74.69;94848.19;5073539;28;20190;-79
2021/04/08 02:23:23;;;;;;;13.27;9.07;;;;;;;2.20;76.68;94847.75;5074404;28;20428;-79
2021/04/08 02:25:51;;;;;;;13.98;8.85;;;;;;;2.27;76.88;94854.28;5074216;28;20190;-79
2021/04/08 02:28:19;;;;;;;15.38;7.68;;;;;;;2.23;75.51;94863.13;5073849;28;20189;-79
2021/04/08 02:30:47;;;;;;;13.25;8.95;;;;;;;2.18;75.61;94859.94;5074367;28;20216;-79
2021/04/08 02:33:18;;;;;;;10.10;7.20;;;;;;;2.16;75.91;94865.22;5073752;28;20664;-79
2021/04/08 02:35:44;;;;;;;11.10;8.25;;;;;;;2.14;75.27;94871.38;5074619;28;20517;-79
2021/04/08 02:38:11;;;;;;;10.18;7.75;;;;;;;2.10;75.63;94867.28;5074280;28;20205;-79
2021/04/08 02:40:38;;;;;;;11.55;8.60;;;;;;;2.08;75.72;94864.78;5073590;28;20186;-79
2021/04/08 02:43:04;;;;;;;10.55;7.95;;;;;;;2.11;75.57;94871.56;5073781;28;20355;-80
2021/04/08 02:45:31;;;;;;;18.75;7.90;;;;;;;2.17;77.66;94873.81;5073496;28;20202;-79
2021/04/08 02:47:57;;;;;;;11.90;8.30;;;;;;;2.13;76.39;94872.31;5073718;28;20206;-79
2021/04/08 02:50:24;;;;;;;12.30;9.48;;;;;;;2.18;75.72;94878.06;5038701;28;20259;-79
2021/04/08 02:52:58;;;;;;;16.08;8.85;;;;;;;2.20;75.54;94867.63;5073947;28;20196;-79
2021/04/08 02:55:30;;;;;;;16.27;8.35;;;;;;;2.19;75.09;94877.16;5074159;28;20194;-80
2021/04/08 02:58:02;;;;;;;9.25;8.00;;;;;;;2.18;75.15;94883.25;5073616;28;20285;-79
2021/04/08 03:00:31;;;;;;;12.02;7.47;;;;;;;2.26;75.35;94881.09;5073571;28;20194;-79
2021/04/08 03:03:03;;;;;;;10.68;7.75;;;;;;;2.19;75.21;94887.50;5074111;28;20190;-79
2021/04/08 03:05:30;;;;;;;11.88;8.13;;;;;;;2.20;75.38;94890.94;5074047;28;20217;-79
2021/04/08 03:07:59;;;;;;;12.38;9.60;;;;;;;2.24;75.96;94889.84;5073905;28;20292;-79
2021/04/08 03:10:28;;;;;;;28.65;15.10;;;;;;;2.22;75.79;94897.69;5073174;28;20264;-79
2021/04/08 03:12:58;;;;;;;12.48;8.57;;;;;;;2.20;75.16;94898.69;5073394;28;20198;-80
2021/04/08 03:15:28;;;;;;;12.80;8.00;;;;;;;2.12;75.82;94901.69;5073430;28;20195;-79
2021/04/08 03:17:56;;;;;;;12.02;8.02;;;;;;;2.09;76.08;94907.88;5073236;28;20220;-80
2021/04/08 03:20:23;;;;;;;10.45;7.60;;;;;;;2.09;76.23;94901.84;5072992;28;20214;-79
2021/04/08 03:22:52;;;;;;;10.20;7.80;;;;;;;2.09;76.56;94913.03;5073069;28;20676;-79
2021/04/08 03:25:19;;;;;;;11.55;8.95;;;;;;;2.10;76.75;94919.88;5072545;28;20442;-80
2021/04/08 03:27:47;;;;;;;10.55;8.52;;;;;;;2.22;76.22;94922.75;5073495;28;20186;-79
2021/04/08 03:30:15;;;;;;;8.80;7.78;;;;;;;2.08;75.83;94924.31;5073287;28;20194;-79
2021/04/08 03:32:43;;;;;;;14.35;8.80;;;;;;;2.07;76.59;94932.16;5074207;28;20209;-80
2021/04/08 03:35:12;;;;;;;11.10;7.25;;;;;;;2.11;76.49;94951.78;5077435;28;20193;-80
2021/04/08 03:37:40;;;;;;;14.25;9.05;;;;;;;2.11;78.82;94952.63;5077716;28;20198;-80
2021/04/08 03:40:09;;;;;;;15.95;8.15;;;;;;;2.15;76.81;94948.97;5077936;28;20225;-79
2021/04/08 03:42:36;;;;;;;12.55;9.15;;;;;;;2.08;76.47;94962.28;5077195;28;20233;-79
2021/04/08 03:45:03;;;;;;;10.38;7.57;;;;;;;2.20;78.57;94964.25;5077271;28;20252;-80
2021/04/08 03:47:29;;;;;;;11.88;8.02;;;;;;;2.24;76.38;94976.13;5077180;28;20190;-79
2021/04/08 03:49:58;;;;;;;10.82;8.02;;;;;;;2.24;76.85;94973.53;5077308;28;20196;-80
2021/04/08 03:52:26;;;;;;;13.32;8.75;;;;;;;2.27;76.14;94972.53;5042538;28;20204;-79
2021/04/08 03:54:53;;;;;;;14.48;7.57;;;;;;;2.32;77.76;94981.75;5042038;28;20197;-79
2021/04/08 03:57:22;;;;;;;11.07;8.02;;;;;;;2.28;76.22;94982.81;5077103;28;20198;-79
2021/04/08 03:59:49;;;;;;;11.20;8.15;;;;;;;2.28;76.26;94987.97;5077436;28;20226;-79
2021/04/08 04:02:16;;;;;;;11.23;7.55;;;;;;;2.19;75.57;94985.88;5077946;28;20216;-80
2021/04/08 04:04:43;;;;;;;9.70;8.20;;;;;;;2.27;76.07;94990.66;5077275;28;20194;-79
2021/04/08 04:07:10;;;;;;;15.48;9.80;;;;;;;2.28;75.92;95000.09;5077294;28;20198;-79
2021/04/08 04:09:37;;;;;;;9.85;8.65;;;;;;;2.27;76.49;95003.59;5077106;28;20590;-79
2021/04/08 04:12:05;;;;;;;12.30;9.52;;;;;;;2.31;76.77;94998.19;5076514;28;20187;-79
2021/04/08 04:14:33;;;;;;;9.90;8.48;;;;;;;2.23;75.53;95010.69;5076706;28;20198;-79
2021/04/08 04:17:23;;;;;;;13.38;9.50;;;;;;;2.20;76.22;95002.25;5077065;28;20225;-80
2021/04/08 04:19:49;;;;;;;11.77;8.45;;;;;;;2.21;77.25;95007.34;5076614;28;20214;-80
2021/04/08 04:22:17;;;;;;;14.32;8.40;;;;;;;2.22;76.48;95010.75;5076331;28;20275;-80
2021/04/08 04:24:43;;;;;;;10.95;9.07;;;;;;;2.24;75.79;95014.94;5076623;28;20195;-80
2021/04/08 04:27:09;;;;;;;17.40;8.88;;;;;;;2.30;75.99;95017.22;5076684;28;20206;-80
2021/04/08 04:29:36;;;;;;;11.23;8.40;;;;;;;2.28;76.08;95026.81;5058055;28;20204;-80
2021/04/08 04:32:02;;;;;;;15.65;10.60;;;;;;;2.35;75.37;95035.13;5076950;28;20796;-80
2021/04/08 04:34:29;;;;;;;17.17;11.03;;;;;;;2.39;75.86;95039.25;5076317;28;20198;-80
2021/04/08 04:36:55;;;;;;;14.45;9.15;;;;;;;2.35;76.12;95035.97;5076194;28;20927;-80
2021/04/08 04:39:22;;;;;;;12.35;9.35;;;;;;;2.32;76.29;95048.25;5075792;28;20578;-80
2021/04/08 04:41:48;;;;;;;13.73;9.18;;;;;;;2.33;75.89;95045.56;5076275;28;20573;-79
2021/04/08 04:44:15;;;;;;;12.98;9.35;;;;;;;2.31;76.39;95042.19;5075365;28;20182;-79
2021/04/08 04:46:41;;;;;;;9.65;8.10;;;;;;;2.33;76.47;95045.56;5076086;28;20205;-80
2021/04/08 04:49:07;;;;;;;12.40;8.68;;;;;;;2.30;75.86;95052.63;5076150;28;20202;-79
2021/04/08 04:51:34;;;;;;;10.07;8.98;;;;;;;2.26;76.43;95045.94;5057301;28;20202;-79
2021/04/08 04:54:00;;;;;;;12.23;8.77;;;;;;;2.28;76.24;95041.50;5076000;28;20204;-79
2021/04/08 04:56:28;;;;;;;13.57;10.32;;;;;;;2.31;76.98;95051.72;5075941;28;20197;-79
2021/04/08 04:58:54;;;;;;;11.80;8.98;;;;;;;2.30;76.77;95056.06;5075780;28;20680;-79
2021/04/08 05:01:20;;;;;;;10.02;8.35;;;;;;;2.22;76.55;95057.34;5075519;28;20190;-78
2021/04/08 05:03:47;;;;;;;16.08;9.35;;;;;;;2.26;77.32;95049.34;5073970;28;20205;-78
2021/04/08 05:06:13;;;;;;;17.52;9.00;;;;;;;2.26;78.31;95059.72;5076136;28;20201;-81
2021/04/08 05:08:39;;;;;;;12.00;9.75;;;;;;;2.32;77.04;95063.78;5075767;28;20256;-77
2021/04/08 05:11:06;;;;;;;15.50;9.50;;;;;;;2.38;76.41;95063.47;5075524;28;20677;-78
2021/04/08 05:13:34;;;;;;;17.77;10.65;;;;;;;2.42;76.09;95070.16;5075960;28;20194;-77
2021/04/08 05:16:00;;;;;;;17.17;11.23;;;;;;;2.50;77.51;95070.59;5075960;28;20267;-76
2021/04/08 05:18:26;;;;;;;13.93;10.05;;;;;;;2.57;75.95;95068.53;5075602;28;20198;-76
2021/04/08 05:20:52;;;;;;;16.60;11.45;;;;;;;2.60;75.76;95073.56;5075584;28;20548;-76
2021/04/08 05:23:19;;;;;;;15.68;10.55;;;;;;;2.57;75.37;95069.38;5075508;28;20256;-79
2021/04/08 05:25:45;;;;;;;17.65;11.18;;;;;;;2.67;78.56;95060.22;5075784;28;20243;-78
2021/04/08 05:28:12;;;;;;;16.92;11.50;;;;;;;2.69;77.56;95083.47;5074994;28;20596;-78
2021/04/08 05:30:39;;;;;;;14.52;10.40;;;;;;;2.77;76.87;95076.13;5040560;28;20200;-78
2021/04/08 05:33:05;;;;;;;15.30;11.10;;;;;;;2.80;74.11;95081.16;5075192;28;20197;-78
2021/04/08 05:35:32;;;;;;;16.40;10.75;;;;;;;2.83;74.27;95082.75;5075174;28;20217;-78
2021/04/08 05:37:58;;;;;;;14.15;9.85;;;;;;;2.89;74.51;95069.47;5075484;28;20638;-78
2021/04/08 05:40:25;;;;;;;22.73;14.03;;;;;;;2.95;74.86;95090.75;5075190;28;20225;-76
2021/04/08 05:42:51;;;;;;;10.70;8.57;;;;;;;2.92;74.17;95088.31;5075097;28;20903;-78
2021/04/08 05:45:19;;;;;;;13.13;9.15;;;;;;;2.99;73.37;95081.88;5074036;28;20950;-78
2021/04/08 05:47:47;;;;;;;10.83;9.10;;;;;;;3.18;75.15;95092.13;5074829;28;20249;-78
2021/04/08 05:50:15;;;;;;;16.07;11.30;;;;;;;3.24;73.62;95088.38;5074925;28;20467;-78
2021/04/08 05:52:41;;;;;;;17.90;12.03;;;;;;;3.40;72.82;95092.66;5074941;28;20527;-76
2021/04/08 05:55:09;;;;;;;14.47;10.57;;;;;;;3.51;72.36;95096.44;5071721;28;20493;-75
2021/04/08 05:57:36;;;;;;;12.38;10.02;;;;;;;3.50;71.31;95102.56;5054871;28;20453;-78
2021/04/08 06:00:03;;;;;;;23.23;14.40;;;;;;;3.52;73.63;95109.31;5064539;28;20218;-78
2021/04/08 06:02:30;;;;;;;14.37;9.87;;;;;;;3.54;72.18;95115.28;5074443;28;20494;-79
2021/04/08 06:04:57;;;;;;;20.13;10.03;;;;;;;3.58;72.69;95113.34;4990258;28;20501;-78
2021/04/08 06:07:23;;;;;;;17.50;9.83;;;;;;;3.46;70.70;95109.63;5074677;28;20445;-79
2021/04/08 06:09:50;;;;;;;11.40;9.40;;;;;;;3.39;70.95;95118.66;5073853;28;20539;-79
2021/04/08 06:12:16;;;;;;;15.17;10.00;;;;;;;3.40;72.58;95112.56;5074670;28;20500;-78
2021/04/08 06:14:43;;;;;;;15.13;10.77;;;;;;;3.34;71.37;95115.47;5072423;28;20452;-76
2021/04/08 06:17:09;;;;;;;15.15;11.20;;;;;;;3.35;73.26;95125.78;5073981;28;20534;-76
2021/04/08 06:19:36;;;;;;;25.87;12.93;;;;;;;3.36;70.44;95124.84;5019444;28;20227;-78
2021/04/08 06:22:03;;;;;;;22.30;11.20;;;;;;;3.50;71.39;95124.13;5053724;28;20441;-76
2021/04/08 06:24:30;;;;;;;14.83;10.20;;;;;;;3.65;73.78;95120.72;5019362;28;20449;-77
2021/04/08 06:26:56;;;;;;;15.07;9.73;;;;;;;3.64;70.66;95124.22;5054380;28;20429;-77
2021/04/08 06:29:23;;;;;;;19.17;11.63;;;;;;;3.73;70.16;95141.03;5069202;28;20842;-76
2021/04/08 06:31:49;;;;;;;15.17;10.97;;;;;;;3.85;69.85;95134.38;5038354;28;20479;-76
2021/04/08 06:34:16;;;;;;;17.20;12.40;;;;;;;4.09;71.36;95137.38;5074180;28;20448;-77
2021/04/08 06:36:43;;;;;;;14.97;9.77;;;;;;;4.11;69.49;95149.34;5074088;28;20448;-76
2021/04/08 06:39:10;;;;;;;18.20;10.60;;;;;;;4.18;69.28;95148.09;5073617;28;20468;-76
2021/04/08 06:41:37;;;;;;;17.37;11.10;;;;;;;4.29;77.63;95131.88;5074103;28;20472;-77
2021/04/08 06:44:07;;;;;;;16.17;11.47;;;;;;;4.39;69.44;95150.41;5073521;28;20448;-77
2021/04/08 06:46:37;;;;;;;24.13;10.73;;;;;;;4.41;68.21;95146.78;5073892;28;20509;-77
2021/04/08 06:49:09;;;;;;;16.80;11.27;;;;;;;4.43;70.66;95159.69;5073754;28;20447;-76
2021/04/08 06:51:39;;;;;;;12.10;9.90;;;;;;;4.45;67.77;95161.28;5074065;28;20441;-77
2021/04/08 06:54:05;;;;;;;15.10;9.87;;;;;;;4.48;67.84;95158.50;5039009;28;20445;-77
2021/04/08 06:56:35;;;;;;;17.53;10.30;;;;;;;4.53;67.84;95159.06;5073475;28;20959;-77
2021/04/08 06:59:01;;;;;;;15.50;10.47;;;;;;;4.49;67.60;95169.72;5073298;28;20495;-77
2021/04/08 07:01:28;;;;;;;19.50;9.73;;;;;;;4.44;66.96;95164.81;5038588;28;20456;-77
2021/04/08 07:03:55;;;;;;;15.93;9.00;;;;;;;4.49;68.62;95167.13;5073810;28;20445;-77
2021/04/08 07:06:22;;;;;;;13.23;8.90;;;;;;;4.67;69.69;95168.69;5073381;28;20451;-77
2021/04/08 07:08:48;;;;;;;22.67;9.83;;;;;;;4.76;67.70;95175.13;5073151;28;20436;-77
2021/04/08 07:11:15;;;;;;;13.03;9.80;;;;;;;4.86;67.20;95174.50;5073466;28;20459;-78
2021/04/08 07:13:42;;;;;;;18.97;10.23;;;;;;;5.08;66.47;95181.06;5073232;28;20455;-77
2021/04/08 07:16:14;;;;;;;18.13;10.20;;;;;;;5.11;65.04;95183.47;5073966;28;20444;-77
2021/04/08 07:18:41;;;;;;;11.37;9.80;;;;;;;5.17;64.43;95185.72;5073798;28;20437;-77
2021/04/08 07:21:07;;;;;;;13.97;9.20;;;;;;;5.12;64.51;95187.75;5073362;28;20437;-76
2021/04/08 07:23:33;;;;;;;12.90;9.40;;;;;;;5.08;65.21;95196.66;5073054;28;20447;-76
2021/04/08 07:26:02;;;;;;;12.67;8.73;;;;;;;5.23;64.04;95198.38;5073303;28;20451;-77
2021/04/08 07:28:33;;;;;;;11.37;10.10;;;;;;;5.41;64.22;95191.22;5073241;28;20455;-77
2021/04/08 07:31:22;;;;;;;12.73;10.03;;;;;;;5.56;65.08;95195.53;5072968;28;20448;-77
2021/04/08 07:33:49;;;;;;;16.67;9.57;;;;;;;5.69;62.11;95191.25;5073277;28;20437;-77
2021/04/08 07:36:27;;;;;;;17.80;10.20;;;;;;;5.99;60.58;95195.53;5072477;28;20440;-77
2021/04/08 07:38:54;;;;;;;14.80;10.80;;;;;;;6.25;59.98;95201.72;5072818;28;20495;-77
2021/04/08 07:41:25;;;;;;;13.83;10.27;;;;;;;6.44;59.62;95197.03;5073161;28;20939;-77
2021/04/08 07:43:59;;;;;;;13.40;8.80;;;;;;;6.69;58.01;95202.34;5073243;28;20436;-77
2021/04/08 07:46:34;;;;;;;14.40;10.23;;;;;;;7.03;58.15;95200.97;5073157;28;20855;-77
2021/04/08 07:49:01;;;;;;;22.20;13.10;;;;;;;7.41;57.08;95206.25;5037645;28;20501;-76
2021/04/08 07:51:29;;;;;;;16.33;10.77;;;;;;;7.75;54.68;95212.63;5072641;28;20444;-77
2021/04/08 07:54:14;;;;;;;12.73;10.07;;;;;;;8.07;53.76;95204.31;5073185;28;20448;-79
2021/04/08 07:56:41;;;;;;;14.03;9.50;;;;;;;8.16;52.78;95205.47;5010862;28;20446;-78
2021/04/08 07:59:23;;;;;;;25.37;15.30;;;;;;;8.41;53.34;95209.84;4962721;28;20481;-78
2021/04/08 08:01:52;;;;;;;20.03;13.20;;;;;;;8.72;51.62;95204.09;5011130;28;20458;-78
2021/04/08 08:04:20;;;;;;;16.93;9.47;;;;;;;8.83;50.30;95204.13;5011010;28;20440;-78
2021/04/08 08:06:47;;;;;;;8.80;6.97;;;;;;;8.67;49.60;95203.56;5011063;28;20448;-78
2021/04/08 08:09:13;;;;;;;12.13;7.10;;;;;;;8.83;47.43;95209.38;5011414;28;20471;-78
2021/04/08 08:11:41;;;;;;;13.80;10.20;;;;;;;8.92;48.51;95200.00;4962215;28;20443;-78
2021/04/08 08:14:09;;;;;;;11.50;9.33;;;;;;;9.00;49.86;95206.34;5010729;28;20443;-76
2021/04/08 08:16:36;;;;;;;9.83;8.43;;;;;;;9.01;46.44;95204.56;5010511;28;21003;-77
2021/04/08 08:19:04;;;;;;;13.87;8.03;;;;;;;9.05;46.09;95203.41;5011635;28;20523;-77
2021/04/08 08:21:36;;;;;;;14.00;8.30;;;;;;;8.92;45.35;95205.22;5014068;28;20451;-77
2021/04/08 08:24:07;;;;;;;15.20;8.30;;;;;;;8.73;47.13;95215.38;5014101;28;20452;-78
2021/04/08 08:26:36;;;;;;;19.13;8.70;;;;;;;8.79;46.79;95207.09;5013886;28;20481;-77
2021/04/08 08:29:13;;;;;;;12.70;9.33;;;;;;;8.93;44.85;95206.91;5014060;28;20451;-77
2021/04/08 08:31:42;;;;;;;13.90;8.67;;;;;;;9.22;46.21;95205.59;5013887;28;20440;-79
2021/04/08 08:34:12;;;;;;;10.37;7.80;;;;;;;9.25;45.56;95200.16;5055068;28;20445;-79
2021/04/08 08:36:39;;;;;;;20.73;10.60;;;;;;;9.32;45.73;95206.59;5075863;28;20462;-78
2021/04/08 08:39:08;;;;;;;30.87;16.60;;;;;;;9.42;46.58;95209.34;5076797;28;20952;-78
2021/04/08 08:41:35;;;;;;;10.97;7.80;;;;;;;9.48;45.21;95215.91;5075824;28;20471;-79
2021/04/08 08:44:04;;;;;;;23.33;10.60;;;;;;;9.59;43.58;95218.56;5076032;28;20774;-78
2021/04/08 08:46:36;;;;;;;8.13;6.77;;;;;;;9.35;42.44;95218.63;5076381;28;20785;-79
2021/04/08 08:49:02;;;;;;;12.03;6.77;;;;;;;9.02;42.76;95214.09;5076481;28;20436;-78
2021/04/08 08:51:30;;;;;;;12.67;6.23;;;;;;;8.71;42.00;95223.34;5075995;28;20516;-79
2021/04/08 08:53:57;;;;;;;9.03;7.27;;;;;;;8.56;43.47;95225.28;5076487;28;20445;-79
2021/04/08 08:56:27;;;;;;;7.00;6.40;;;;;;;8.33;43.82;95220.78;5076044;28;20456;-77
2021/04/08 08:58:55;;;;;;;10.37;7.20;;;;;;;8.23;43.67;95222.41;5075417;28;20510;-78
2021/04/08 09:01:21;;;;;;;13.57;7.63;;;;;;;8.48;43.26;95230.22;5057116;28;20452;-76
2021/04/08 09:03:48;;;;;;;8.40;6.10;;;;;;;8.84;44.70;95216.25;5075929;28;20445;-79
2021/04/08 09:06:15;;;;;;;7.03;5.80;;;;;;;8.91;41.68;95214.03;5076125;28;20469;-79
2021/04/08 09:08:48;;;;;;;18.83;7.13;;;;;;;8.77;43.34;95214.22;5074977;28;20876;-79
2021/04/08 09:11:19;;;;;;;12.60;6.90;;;;;;;8.42;41.85;95220.19;5075852;28;20433;-78
2021/04/08 09:13:48;;;;;;;15.50;8.93;;;;;;;8.09;47.10;95218.13;5075726;28;20482;-79
2021/04/08 09:16:16;;;;;;;12.83;8.60;;;;;;;7.95;46.03;95219.09;5075400;28;20446;-79
2021/04/08 09:18:56;;;;;;;9.27;7.30;;;;;;;7.87;47.58;95218.78;5075061;28;20467;-78
2021/04/08 09:21:23;;;;;;;7.77;6.80;;;;;;;8.06;46.81;95215.72;5075572;28;20987;-78
2021/04/08 09:24:06;;;;;;;20.20;11.33;;;;;;;8.33;48.34;95215.56;5075255;28;20917;-78
2021/04/08 09:26:39;;;;;;;10.20;7.40;;;;;;;8.61;46.08;95209.25;5075277;28;20451;-78
2021/04/08 09:29:07;;;;;;;10.70;8.00;;;;;;;8.96;46.55;95214.53;5075234;28;20841;-75
2021/04/08 09:31:34;;;;;;;11.93;8.10;;;;;;;9.29;45.53;95212.06;5074628;28;20437;-79
2021/04/08 09:34:02;;;;;;;8.60;7.43;;;;;;;9.56;45.00;95222.25;5075023;28;20983;-79
2021/04/08 09:36:42;;;;;;;13.90;9.30;;;;;;;9.68;44.55;95217.84;5075671;28;20418;-78
2021/04/08 09:42:34;;;;;;;14.20;8.63;;;;;;;9.00;45.49;95219.44;5058767;28;20513;-79
2021/04/08 09:45:00;;;;;;;21.23;9.20;;;;;;;8.93;44.28;95219.97;5075343;28;20442;-76
2021/04/08 09:47:33;;;;;;;8.43;7.53;;;;;;;8.79;45.63;95220.16;5075473;28;20449;-79
2021/04/08 09:49:59;;;;;;;10.03;9.13;;;;;;;8.63;46.54;95223.88;5075302;28;20445;-80
2021/04/08 09:52:26;;;;;;;15.20;8.87;;;;;;;8.79;47.03;95222.78;5056453;28;20495;-80
2021/04/08 09:54:55;;;;;;;69.10;36.33;;;;;;;9.09;49.48;95224.94;5074711;28;20533;-79
2021/04/08 09:57:39;;;;;;;10.77;8.40;;;;;;;9.41;47.53;95220.78;5074815;28;20984;-79
2021/04/08 10:00:13;;;;;;;7.70;6.80;;;;;;;9.50;44.63;95214.84;5074801;28;20846;-76
2021/04/08 10:02:39;;;;;;;10.10;7.17;;;;;;;9.63;43.65;95220.81;5039760;28;20460;-77
2021/04/08 10:05:30;;;;;;;10.50;6.43;;;;;;;9.49;41.97;95220.19;5074344;28;20450;-79
2021/04/08 10:07:58;;;;;;;11.23;6.10;;;;;;;9.66;41.83;95217.13;5039561;28;20447;-78
2021/04/08 10:10:40;;;;;;;7.00;5.63;;;;;;;9.83;39.40;95221.94;5075091;28;20486;-79
2021/04/08 10:13:23;;;;;;;11.90;7.20;;;;;;;9.77;40.23;95206.66;5075013;28;20526;-79
2021/04/08 10:15:52;;;;;;;13.23;6.90;;;;;;;9.88;40.73;95209.31;5074759;28;20456;-79
2021/04/08 10:18:20;;;;;;;8.20;5.07;;;;;;;9.72;34.67;95208.81;5074839;28;20895;-79
2021/04/08 10:20:48;;;;;;;5.70;4.80;;;;;;;9.51;33.96;95203.41;5074776;28;20472;-79
2021/04/08 10:23:28;;;;;;;7.30;5.60;;;;;;;9.34;36.73;95193.38;5074757;28;20449;-79
2021/04/08 10:25:56;;;;;;;9.70;6.03;;;;;;;9.42;39.27;95203.28;5074217;28;20440;-79
2021/04/08 10:28:24;;;;;;;7.07;6.10;;;;;;;9.41;40.26;95209.47;5074354;28;20483;-80
2021/04/08 10:30:50;;;;;;;7.27;5.63;;;;;;;9.32;39.45;95209.22;5039119;28;20925;-79
2021/04/08 10:33:18;;;;;;;6.47;5.70;;;;;;;8.98;39.00;95220.50;5073809;28;20445;-79
2021/04/08 10:35:45;;;;;;;10.70;6.30;;;;;;;8.81;37.74;95216.50;5073870;28;20433;-79
2021/04/08 10:38:12;;;;;;;9.30;5.70;;;;;;;8.55;43.00;95220.97;5074153;28;20484;-78
2021/04/08 10:40:39;;;;;;;9.80;7.20;;;;;;;8.27;40.05;95218.63;5074514;28;20477;-79
2021/04/08 10:43:14;;;;;;;5.43;4.93;;;;;;;8.38;38.51;95226.56;5073911;28;20476;-79
2021/04/08 10:45:52;;;;;;;6.67;4.77;;;;;;;8.54;40.47;95218.47;5074610;28;20515;-79
2021/04/08 10:48:19;;;;;;;9.40;4.40;;;;;;;8.67;37.08;95214.03;5074428;28;20448;-80
2021/04/08 10:50:45;;;;;;;11.17;4.00;;;;;;;8.59;35.54;95211.97;5074718;28;20433;-79
2021/04/08 10:53:16;;;;;;;9.87;3.97;;;;;;;8.64;35.95;95217.69;5074137;28;20924;-79
2021/04/08 10:55:43;;;;;;;5.80;4.70;;;;;;;8.50;35.56;95209.19;5073841;28;20469;-79
2021/04/08 10:58:20;;;;;;;5.07;4.57;;;;;;;8.47;36.45;95217.25;5074213;28;20478;-80
2021/04/08 11:00:46;;;;;;;7.50;6.67;;;;;;;8.49;37.81;95231.06;5074172;28;20464;-79
2021/04/08 11:03:14;;;;;;;6.10;5.50;;;;;;;8.57;39.96;95226.09;5073819;28;20436;-79
2021/04/08 11:05:41;;;;;;;9.97;6.00;;;;;;;8.63;39.75;95225.66;5074026;28;20495;-79
2021/04/08 11:08:08;;;;;;;10.13;7.17;;;;;;;8.59;41.66;95218.97;5073667;28;20447;-78
2021/04/08 11:10:35;;;;;;;10.33;6.60;;;;;;;8.55;41.25;95220.97;5073362;28;20433;-79
2021/04/08 11:13:02;;;;;;;5.23;4.67;;;;;;;8.60;40.59;95221.47;5073696;28;20798;-80
2021/04/08 11:15:30;;;;;;;6.10;3.80;;;;;;;8.68;38.88;95227.03;5073394;28;20432;-79
2021/04/08 11:17:59;;;;;;;5.33;4.73;;;;;;;8.82;37.88;95217.31;5073661;28;20430;-79
2021/04/08 11:20:30;;;;;;;4.57;4.17;;;;;;;9.09;41.26;95224.94;5073054;28;20492;-79
2021/04/08 11:22:58;;;;;;;9.57;7.33;;;;;;;9.21;38.37;95218.78;5073679;28;20453;-79
2021/04/08 11:25:27;;;;;;;14.30;8.03;;;;;;;9.21;41.67;95224.03;5073310;28;21252;-79
2021/04/08 11:27:55;;;;;;;9.67;8.00;;;;;;;8.95;43.95;95225.94;5073781;28;20451;-80
2021/04/08 11:30:26;;;;;;;14.17;7.37;;;;;;;8.74;44.65;95230.13;5073413;28;20441;-80
2021/04/08 11:32:54;;;;;;;10.47;7.20;;;;;;;8.39;45.46;95236.09;5039541;28;20825;-79
2021/04/08 11:35:32;;;;;;;16.87;7.80;;;;;;;7.99;45.64;95233.63;5073431;28;20454;-80
2021/04/08 11:38:19;;;;;;;8.20;7.20;;;;;;;7.91;47.10;95246.38;5073601;28;20449;-79
2021/04/08 11:40:48;;;;;;;7.30;5.53;;;;;;;8.06;47.89;95236.63;5011475;28;20566;-80
2021/04/08 11:43:26;;;;;;;13.67;6.70;;;;;;;8.30;47.27;95241.94;5011219;28;21243;-79
2021/04/08 11:45:54;;;;;;;12.30;5.50;;;;;;;8.51;44.11;95237.00;4978956;28;20440;-80
2021/04/08 11:48:22;;;;;;;10.03;6.70;;;;;;;8.84;44.06;95233.75;5011689;28;21250;-79
2021/04/08 11:50:50;;;;;;;7.60;5.33;;;;;;;9.07;43.66;95229.47;5011380;28;20495;-80
2021/04/08 11:53:18;;;;;;;7.73;5.70;;;;;;;9.09;42.03;95225.78;5012098;28;20444;-80
2021/04/08 11:55:47;;;;;;;11.30;6.90;;;;;;;9.24;42.12;95222.00;5015570;28;20438;-80
2021/04/08 11:58:23;;;;;;;10.43;6.03;;;;;;;9.34;42.24;95223.97;5015351;28;20852;-80
2021/04/08 12:00:50;;;;;;;6.30;5.27;;;;;;;9.36;41.09;95222.06;5015014;28;20507;-80
2021/04/08 12:03:19;;;;;;;8.70;7.03;;;;;;;9.25;40.89;95213.25;5015462;28;20430;-80
2021/04/08 12:05:46;;;;;;;8.30;6.77;;;;;;;9.26;41.47;95222.75;5015267;28;20443;-80
2021/04/08 12:08:13;;;;;;;12.33;6.13;;;;;;;9.43;41.64;95224.09;5015630;28;20441;-79